createdAt,value
2018-08-16T00:00:17.041Z,103.43
2018-08-16T00:02:46.270Z,104.77
2018-08-16T00:05:14.948Z,85.20
2018-08-16T00:07:43.494Z,92.57
2018-08-16T00:10:13.628Z,83.97
2018-08-16T00:12:43.376Z,84.40
2018-08-16T00:15:11.950Z,71.47
2018-08-16T00:17:41.170Z,78.63
2018-08-16T00:20:09.903Z,108.10
2018-08-16T00:22:38.420Z,127.23
2018-08-16T00:25:07.787Z,154.30
2018-08-16T00:27:36.345Z,196.83
2018-08-16T00:30:07.137Z,190.90
2018-08-16T00:32:35.748Z,166.10
2018-08-16T00:35:04.888Z,215.67
2018-08-16T00:37:33.441Z,252.07
2018-08-16T00:40:02.035Z,268.93
2018-08-16T00:42:33.850Z,241.87
2018-08-16T00:45:03.166Z,219.00
2018-08-16T00:47:32.522Z,203.20
2018-08-16T00:50:01.151Z,196.20
2018-08-16T00:52:29.691Z,189.17
2018-08-16T00:54:58.226Z,180.37
2018-08-16T00:57:26.771Z,199.47
2018-08-16T00:59:55.484Z,211.80
2018-08-16T01:02:24.040Z,215.17
2018-08-16T01:04:52.564Z,213.10
2018-08-16T01:07:21.237Z,188.50
2018-08-16T01:09:49.804Z,157.67
2018-08-16T01:12:18.623Z,118.50
2018-08-16T01:14:47.086Z,97.47
2018-08-16T01:17:15.631Z,75.50
2018-08-16T01:19:44.193Z,59.73
2018-08-16T01:22:12.727Z,57.63
2018-08-16T01:24:41.269Z,59.17
2018-08-16T01:27:09.749Z,54.87
2018-08-16T01:29:38.258Z,50.73
2018-08-16T01:32:06.766Z,52.80
2018-08-16T01:34:35.306Z,51.33
2018-08-16T01:37:03.900Z,53.00
2018-08-16T01:39:32.398Z,53.07
2018-08-16T01:42:00.970Z,54.23
2018-08-16T01:44:29.496Z,51.20
2018-08-16T01:46:57.962Z,51.63
2018-08-16T01:49:38.494Z,55.27
2018-08-16T01:52:07.177Z,50.13
2018-08-16T01:54:35.669Z,58.70
2018-08-16T01:57:04.417Z,54.07
2018-08-16T01:59:32.907Z,62.40
2018-08-16T02:02:01.423Z,77.87
2018-08-16T02:04:29.873Z,67.50
2018-08-16T02:06:58.431Z,68.87
2018-08-16T02:09:26.939Z,76.00
2018-08-16T02:11:55.431Z,89.73
2018-08-16T02:14:23.906Z,94.47
2018-08-16T02:16:52.409Z,101.00
2018-08-16T02:19:21.042Z,102.67
2018-08-16T02:21:49.588Z,81.20
2018-08-16T02:24:18.095Z,67.17
2018-08-16T02:26:46.585Z,55.50
2018-08-16T02:29:15.088Z,51.03
2018-08-16T02:31:43.565Z,51.83
2018-08-16T02:34:12.089Z,52.43
2018-08-16T02:36:40.647Z,50.27
2018-08-16T02:39:09.878Z,43.83
2018-08-16T02:41:39.052Z,47.30
2018-08-16T02:44:08.068Z,49.60
2018-08-16T02:46:36.585Z,46.77
2018-08-16T02:49:05.088Z,48.23
2018-08-16T02:51:33.658Z,50.23
2018-08-16T02:54:02.196Z,46.77
2018-08-16T02:56:30.770Z,46.87
2018-08-16T02:58:59.416Z,46.60
2018-08-16T03:01:27.868Z,51.17
2018-08-16T03:03:56.365Z,50.73
2018-08-16T03:06:24.881Z,48.50
2018-08-16T03:08:53.540Z,50.33
2018-08-16T03:11:22.053Z,50.10
2018-08-16T03:13:50.531Z,46.47
2018-08-16T03:16:19.029Z,50.03
2018-08-16T03:18:47.466Z,53.93
2018-08-16T03:21:15.985Z,90.33
2018-08-16T03:23:44.497Z,109.53
2018-08-16T03:26:12.976Z,114.97
2018-08-16T03:28:41.463Z,110.77
2018-08-16T03:31:09.999Z,105.00
2018-08-16T03:33:38.541Z,120.70
2018-08-16T03:36:07.064Z,131.83
2018-08-16T03:38:35.965Z,138.20
2018-08-16T03:41:04.660Z,104.23
2018-08-16T03:43:33.205Z,75.87
2018-08-16T03:46:01.857Z,52.63
2018-08-16T03:48:30.350Z,43.50
2018-08-16T03:50:58.844Z,41.70
2018-08-16T03:53:27.355Z,44.53
2018-08-16T03:55:56.054Z,45.70
2018-08-16T03:58:24.504Z,46.50
2018-08-16T04:00:53.134Z,44.53
2018-08-16T04:03:21.634Z,45.80
2018-08-16T04:05:50.113Z,42.63
2018-08-16T04:08:18.638Z,44.00
2018-08-16T04:10:47.112Z,42.90
2018-08-16T04:13:15.596Z,47.80
2018-08-16T04:15:44.033Z,52.10
2018-08-16T04:18:12.534Z,48.97
2018-08-16T04:20:41.017Z,47.30
2018-08-16T04:23:09.512Z,47.00
2018-08-16T04:25:38.030Z,45.10
2018-08-16T04:28:06.548Z,45.27
2018-08-16T04:30:35.065Z,45.07
2018-08-16T04:33:03.672Z,45.67
2018-08-16T04:35:32.150Z,50.50
2018-08-16T04:38:00.647Z,54.70
2018-08-16T04:40:29.164Z,66.40
2018-08-16T04:42:57.872Z,88.93
2018-08-16T04:45:26.382Z,152.40
2018-08-16T04:47:54.928Z,126.10
2018-08-16T04:50:23.445Z,144.57
2018-08-16T04:52:51.998Z,134.57
2018-08-16T04:55:20.577Z,137.17
2018-08-16T04:57:49.061Z,119.27
2018-08-16T05:00:17.585Z,108.10
2018-08-16T05:02:46.077Z,109.97
2018-08-16T05:05:14.545Z,113.77
2018-08-16T05:07:43.027Z,117.77
2018-08-16T05:10:11.758Z,138.30
2018-08-16T05:12:40.251Z,180.47
2018-08-16T05:15:11.264Z,235.63
2018-08-16T05:17:39.782Z,220.93
2018-08-16T05:20:10.663Z,222.63
2018-08-16T05:22:39.126Z,198.47
2018-08-16T05:25:07.756Z,238.60
2018-08-16T05:27:36.224Z,241.20
2018-08-16T05:30:07.077Z,258.67
2018-08-16T05:32:35.566Z,257.83
2018-08-16T05:35:04.709Z,269.17
2018-08-16T05:37:33.232Z,275.50
2018-08-16T05:40:01.728Z,261.53
2018-08-16T05:42:30.337Z,256.43
2018-08-16T05:44:58.819Z,235.33
2018-08-16T05:47:27.336Z,212.73
2018-08-16T05:50:02.482Z,192.50
2018-08-16T05:52:31.310Z,196.77
2018-08-16T05:54:59.810Z,176.40
2018-08-16T05:57:28.289Z,108.73
2018-08-16T05:59:56.797Z,56.67
2018-08-16T06:02:25.572Z,38.77
2018-08-16T06:04:54.338Z,33.80
2018-08-16T06:07:22.898Z,39.33
2018-08-16T06:09:51.451Z,41.60
2018-08-16T06:12:19.944Z,45.33
2018-08-16T06:14:48.572Z,42.70
2018-08-16T06:17:17.106Z,41.63
2018-08-16T06:19:45.593Z,35.13
2018-08-16T06:22:14.094Z,37.97
2018-08-16T06:24:42.608Z,37.83
2018-08-16T06:27:11.138Z,48.30
2018-08-16T06:29:39.685Z,51.27
2018-08-16T06:32:08.177Z,49.40
2018-08-16T06:34:36.655Z,71.03
2018-08-16T06:37:05.503Z,103.37
2018-08-16T06:39:34.028Z,139.73
2018-08-16T06:42:02.697Z,192.43
2018-08-16T06:44:31.262Z,236.87
2018-08-16T06:46:59.760Z,309.63
2018-08-16T06:49:28.488Z,398.40
2018-08-16T06:51:57.253Z,401.40
2018-08-16T06:54:26.100Z,371.23
2018-08-16T06:56:54.570Z,308.03
2018-08-16T06:59:23.357Z,280.27
2018-08-16T07:01:51.810Z,199.33
2018-08-16T07:04:20.372Z,169.83
2018-08-16T07:06:49.087Z,176.20
2018-08-16T07:09:17.577Z,157.40
2018-08-16T07:11:46.066Z,180.37
2018-08-16T07:14:14.576Z,219.10
2018-08-16T07:16:43.070Z,283.83
2018-08-16T07:19:11.600Z,346.37
2018-08-16T07:21:40.080Z,378.53
2018-08-16T07:24:08.684Z,352.53
2018-08-16T07:26:37.167Z,286.30
2018-08-16T07:29:05.948Z,211.93
2018-08-16T07:31:34.723Z,145.63
2018-08-16T07:34:03.252Z,175.43
2018-08-16T07:36:31.788Z,217.97
2018-08-16T07:39:00.307Z,292.37
2018-08-16T07:41:28.799Z,473.13
2018-08-16T07:43:57.304Z,484.10
2018-08-16T07:46:25.870Z,547.67
2018-08-16T07:48:54.356Z,560.03
2018-08-16T07:51:22.992Z,466.17
2018-08-16T07:53:51.403Z,431.03
2018-08-16T07:56:19.900Z,334.43
2018-08-16T07:58:48.474Z,283.53
2018-08-16T08:01:16.978Z,226.90
2018-08-16T08:03:45.509Z,251.43
2018-08-16T08:06:14.086Z,204.97
2018-08-16T08:08:42.634Z,179.23
2018-08-16T08:11:11.253Z,171.23
2018-08-16T08:13:39.825Z,163.43
2018-08-16T08:16:08.368Z,177.80
2018-08-16T08:18:36.988Z,169.63
2018-08-16T08:21:05.525Z,191.70
2018-08-16T08:23:34.060Z,201.87
2018-08-16T08:26:02.773Z,297.90
2018-08-16T08:28:31.261Z,322.43
2018-08-16T08:30:59.792Z,337.30
2018-08-16T08:33:28.620Z,431.63
2018-08-16T08:36:08.481Z,447.90
2018-08-16T08:38:37.008Z,492.50
2018-08-16T08:41:05.504Z,433.83
2018-08-16T08:43:45.162Z,465.87
2018-08-16T08:46:13.688Z,404.00
2018-08-16T08:48:42.278Z,360.73
2018-08-16T08:51:10.822Z,327.23
2018-08-16T08:55:01.830Z,317.60
2018-08-16T08:57:41.475Z,307.73
2018-08-16T09:00:10.007Z,314.90
2018-08-16T09:02:38.736Z,283.70
2018-08-16T09:05:07.690Z,320.23
2018-08-16T09:07:36.258Z,280.13
2018-08-16T09:11:15.212Z,273.97
2018-08-16T09:13:56.122Z,274.07
2018-08-16T09:16:27.700Z,263.17
2018-08-16T09:18:56.611Z,254.00
2018-08-16T09:21:25.260Z,266.43
2018-08-16T09:23:53.807Z,264.27
2018-08-16T09:26:27.944Z,249.40
2018-08-16T09:28:56.498Z,256.07
2018-08-16T09:31:36.345Z,261.70
2018-08-16T09:34:23.888Z,288.20
2018-08-16T09:36:52.606Z,327.53
2018-08-16T09:39:21.270Z,323.10
2018-08-16T09:41:49.675Z,437.73
2018-08-16T09:44:18.329Z,469.40
2018-08-16T09:47:13.267Z,507.33
2018-08-16T09:49:44.838Z,528.03
2018-08-16T09:52:14.068Z,506.13
2018-08-16T09:54:42.610Z,537.27
2018-08-16T09:57:12.044Z,535.20
2018-08-16T09:59:40.564Z,548.03
2018-08-16T10:02:11.728Z,554.30
2018-08-16T10:04:40.188Z,537.63
2018-08-16T10:07:08.753Z,499.73
2018-08-16T10:09:37.423Z,537.87
2018-08-16T10:12:05.974Z,501.40
2018-08-16T10:14:34.524Z,528.47
2018-08-16T10:17:03.029Z,486.90
2018-08-16T10:19:31.546Z,479.93
2018-08-16T10:22:00.000Z,448.37
2018-08-16T10:24:28.604Z,353.33
2018-08-16T10:26:57.176Z,398.87
2018-08-16T10:29:26.577Z,391.70
2018-08-16T10:31:55.180Z,386.27
2018-08-16T10:34:23.644Z,352.17
2018-08-16T10:36:52.174Z,360.13
2018-08-16T10:39:20.676Z,373.87
2018-08-16T10:41:55.565Z,389.33
2018-08-16T10:44:27.320Z,353.40
2018-08-16T10:46:55.994Z,395.77
2018-08-16T10:49:24.508Z,355.50
2018-08-16T10:51:54.036Z,340.33
2018-08-16T10:54:22.524Z,343.13
2018-08-16T10:56:51.031Z,353.60
2018-08-16T10:59:19.520Z,327.43
2018-08-16T11:01:48.055Z,335.53
2018-08-16T11:04:16.686Z,344.80
2018-08-16T11:06:45.357Z,344.33
2018-08-16T11:09:13.878Z,421.20
2018-08-16T11:11:42.421Z,379.37
2018-08-16T11:14:10.913Z,389.70
2018-08-16T11:16:39.464Z,406.13
2018-08-16T11:19:08.013Z,371.30
2018-08-16T11:21:36.559Z,396.83
2018-08-16T11:24:05.036Z,375.37
2018-08-16T11:26:33.538Z,382.00
2018-08-16T11:29:02.012Z,492.23
2018-08-16T11:31:30.516Z,520.40
2018-08-16T11:33:58.959Z,561.30
2018-08-16T11:36:27.508Z,598.47
2018-08-16T11:38:56.032Z,635.23
2018-08-16T11:41:24.502Z,479.77
2018-08-16T11:43:52.991Z,502.30
2018-08-16T11:46:21.495Z,568.43
2018-08-16T11:48:49.991Z,572.30
2018-08-16T11:51:18.528Z,576.03
2018-08-16T11:53:47.055Z,591.80
2018-08-16T11:56:15.546Z,533.93
2018-08-16T11:58:44.339Z,592.47
2018-08-16T12:01:12.797Z,587.93
2018-08-16T12:03:41.281Z,594.77
2018-08-16T12:06:09.794Z,543.50
2018-08-16T12:08:38.451Z,632.90
2018-08-16T12:11:07.205Z,612.17
2018-08-16T12:13:35.685Z,627.23
2018-08-16T12:16:04.235Z,593.10
2018-08-16T12:18:32.800Z,650.67
2018-08-16T12:21:01.335Z,646.90
2018-08-16T12:23:30.104Z,752.30
2018-08-16T12:25:58.627Z,674.40
2018-08-16T12:28:27.124Z,735.37
2018-08-16T12:30:55.564Z,742.40
2018-08-16T12:33:24.075Z,750.77
2018-08-16T12:35:52.589Z,757.03
2018-08-16T12:38:21.070Z,768.90
2018-08-16T12:40:50.199Z,803.23
2018-08-16T12:43:18.141Z,789.30
2018-08-16T12:45:46.892Z,795.27
2018-08-16T12:48:15.409Z,805.97
2018-08-16T12:50:43.905Z,806.57
2018-08-16T12:53:12.433Z,817.00
2018-08-16T12:55:40.906Z,816.27
2018-08-16T12:58:09.431Z,803.00
2018-08-16T13:00:37.916Z,809.20
2018-08-16T13:03:06.533Z,808.73
2018-08-16T13:05:35.043Z,802.87
2018-08-16T13:08:03.571Z,779.70
2018-08-16T13:10:32.104Z,792.93
2018-08-16T13:13:00.558Z,795.00
2018-08-16T13:15:29.076Z,802.03
2018-08-16T13:17:57.556Z,812.27
2018-08-16T13:20:26.072Z,790.60
2018-08-16T13:22:54.581Z,777.37
2018-08-16T13:25:23.095Z,786.37
2018-08-16T13:27:51.674Z,795.90
2018-08-16T13:30:20.209Z,798.27
2018-08-16T13:32:48.644Z,799.43
2018-08-16T13:35:17.158Z,791.77
2018-08-16T13:37:45.600Z,780.80
2018-08-16T13:40:14.157Z,802.47
2018-08-16T13:42:42.907Z,797.00
2018-08-16T13:45:11.453Z,797.03
2018-08-16T13:47:39.948Z,822.33
2018-08-16T13:50:08.466Z,780.47
2018-08-16T13:52:37.064Z,812.93
2018-08-16T13:55:05.665Z,791.60
2018-08-16T13:57:34.124Z,802.27
2018-08-16T14:00:02.630Z,792.90
2018-08-16T14:02:31.169Z,776.03
2018-08-16T14:04:59.606Z,779.67
2018-08-16T14:07:28.116Z,776.03
2018-08-16T14:09:56.593Z,776.70
2018-08-16T14:12:25.112Z,799.37
2018-08-16T14:14:53.590Z,799.23
2018-08-16T14:17:22.224Z,798.53
2018-08-16T14:19:50.798Z,787.13
2018-08-16T14:22:19.386Z,815.03
2018-08-16T14:24:47.864Z,803.77
2018-08-16T14:27:16.438Z,796.63
2018-08-16T14:29:44.888Z,775.20
2018-08-16T14:32:13.432Z,779.20
2018-08-16T14:34:41.900Z,789.97
2018-08-16T14:37:10.466Z,768.60
2018-08-16T14:39:39.040Z,774.83
2018-08-16T14:42:07.674Z,773.97
2018-08-16T14:44:36.122Z,771.17
2018-08-16T14:47:04.729Z,761.90
2018-08-16T14:49:33.299Z,761.90
2018-08-16T14:52:01.823Z,736.50
2018-08-16T14:54:30.313Z,760.70
2018-08-16T14:56:58.798Z,768.77
2018-08-16T14:59:27.293Z,761.33
2018-08-16T15:01:55.844Z,763.30
2018-08-16T15:04:24.340Z,770.53
2018-08-16T15:06:52.904Z,780.23
2018-08-16T15:09:21.502Z,773.23
2018-08-16T15:11:49.987Z,767.47
2018-08-16T15:14:18.470Z,770.00
2018-08-16T15:16:46.969Z,776.17
2018-08-16T15:19:15.468Z,780.30
2018-08-16T15:21:43.949Z,774.40
2018-08-16T15:24:14.143Z,764.63
2018-08-16T15:26:42.661Z,742.23
2018-08-16T15:29:11.168Z,747.93
2018-08-16T15:31:39.695Z,757.90
2018-08-16T15:34:08.720Z,738.93
2018-08-16T15:36:37.240Z,751.80
2018-08-16T15:39:07.384Z,743.97
2018-08-16T15:41:35.932Z,757.40
2018-08-16T15:44:04.518Z,763.70
2018-08-16T15:46:33.016Z,787.50
2018-08-16T15:49:01.516Z,793.10
2018-08-16T15:51:30.064Z,820.17
2018-08-16T15:53:58.569Z,813.27
2018-08-16T15:56:27.150Z,791.53
2018-08-16T15:58:55.652Z,796.03
2018-08-16T16:01:24.184Z,793.57
2018-08-16T16:03:52.738Z,802.07
2018-08-16T16:06:21.268Z,806.60
2018-08-16T16:08:49.805Z,806.37
2018-08-16T16:11:18.325Z,812.50
2018-08-16T16:13:46.953Z,785.30
2018-08-16T16:16:15.428Z,784.93
2018-08-16T16:18:43.920Z,751.33
2018-08-16T16:21:12.438Z,593.30
2018-08-16T16:23:40.876Z,498.40
2018-08-16T16:26:09.373Z,423.70
2018-08-16T16:28:37.847Z,419.03
2018-08-16T16:31:06.345Z,432.40
2018-08-16T16:33:34.868Z,351.60
2018-08-16T16:36:03.406Z,424.63
2018-08-16T16:38:31.878Z,440.90
2018-08-16T16:41:00.393Z,406.47
2018-08-16T16:43:28.907Z,374.40
2018-08-16T16:45:57.522Z,366.83
2018-08-16T16:48:29.310Z,395.63
2018-08-16T16:50:57.869Z,343.73
2018-08-16T16:53:26.412Z,390.80
2018-08-16T16:55:54.901Z,360.33
2018-08-16T16:58:23.432Z,376.23
2018-08-16T17:00:51.939Z,362.27
2018-08-16T17:03:20.481Z,373.80
2018-08-16T17:05:49.025Z,403.63
2018-08-16T17:08:17.591Z,372.57
2018-08-16T17:10:46.128Z,404.13
2018-08-16T17:13:14.673Z,385.60
2018-08-16T17:15:43.202Z,400.63
2018-08-16T17:18:11.839Z,362.80
2018-08-16T17:20:40.409Z,366.60
2018-08-16T17:23:08.960Z,382.47
2018-08-16T17:25:37.528Z,383.40
2018-08-16T17:28:06.294Z,374.43
2018-08-16T17:30:34.840Z,407.13
2018-08-16T17:33:03.337Z,399.63
2018-08-16T17:35:31.872Z,450.97
2018-08-16T17:38:00.440Z,428.97
2018-08-16T17:40:29.017Z,398.50
2018-08-16T17:42:57.573Z,427.63
2018-08-16T17:45:26.096Z,396.10
2018-08-16T17:47:54.760Z,413.97
2018-08-16T17:50:23.283Z,447.60
2018-08-16T17:52:51.792Z,461.37
2018-08-16T17:55:20.336Z,457.43
2018-08-16T17:57:48.833Z,484.73
2018-08-16T18:00:17.395Z,403.70
2018-08-16T18:02:45.923Z,439.97
2018-08-16T18:05:14.478Z,425.57
2018-08-16T18:07:42.973Z,414.60
2018-08-16T18:10:11.600Z,347.97
2018-08-16T18:12:40.124Z,317.10
2018-08-16T18:15:10.572Z,345.07
2018-08-16T18:17:39.930Z,365.87
2018-08-16T18:20:08.661Z,341.63
2018-08-16T18:22:38.090Z,371.30
2018-08-16T18:25:07.155Z,381.77
2018-08-16T18:27:35.690Z,412.10
2018-08-16T18:30:04.703Z,430.17
2018-08-16T18:32:33.223Z,435.63
2018-08-16T18:35:01.717Z,491.37
2018-08-16T18:37:30.254Z,519.07
2018-08-16T18:39:58.793Z,574.87
2018-08-16T18:42:27.333Z,592.47
2018-08-16T18:44:55.887Z,583.53
2018-08-16T18:47:24.472Z,580.77
2018-08-16T18:49:52.960Z,572.07
2018-08-16T18:52:21.491Z,537.93
2018-08-16T18:54:50.020Z,572.70
2018-08-16T18:57:18.604Z,537.83
2018-08-16T18:59:47.117Z,502.33
2018-08-16T19:02:15.678Z,510.73
2018-08-16T19:04:44.229Z,405.27
2018-08-16T19:07:12.727Z,629.40
2018-08-16T19:09:41.301Z,785.33
2018-08-16T19:12:09.871Z,858.90
2018-08-16T19:14:38.378Z,837.20
2018-08-16T19:17:07.028Z,872.90
2018-08-16T19:19:35.563Z,877.23
2018-08-16T19:22:04.216Z,901.70
2018-08-16T19:24:32.740Z,890.30
2018-08-16T19:27:01.293Z,871.47
2018-08-16T19:29:29.845Z,825.73
2018-08-16T19:31:58.337Z,722.43
2018-08-16T19:34:26.876Z,571.57
2018-08-16T19:36:55.431Z,490.17
2018-08-16T19:39:23.927Z,418.00
2018-08-16T19:41:52.472Z,407.90
2018-08-16T19:44:20.956Z,393.50
2018-08-16T19:46:49.540Z,415.60
2018-08-16T19:49:18.051Z,411.87
2018-08-16T19:51:46.548Z,422.93
2018-08-16T19:54:15.068Z,376.73
2018-08-16T19:56:43.621Z,376.97
2018-08-16T19:59:12.112Z,336.30
2018-08-16T20:01:40.752Z,302.47
2018-08-16T20:04:09.271Z,302.03
2018-08-16T20:06:37.760Z,263.67
2018-08-16T20:09:08.449Z,248.47
2018-08-16T20:11:37.076Z,246.20
2018-08-16T20:14:05.655Z,231.87
2018-08-16T20:16:34.572Z,238.77
2018-08-16T20:19:03.193Z,226.13
2018-08-16T20:21:31.679Z,221.13
2018-08-16T20:24:00.231Z,207.53
2018-08-16T20:26:28.709Z,203.10
2018-08-16T20:28:57.249Z,192.77
2018-08-16T20:31:25.765Z,199.63
2018-08-16T20:33:54.297Z,192.47
2018-08-16T20:36:22.834Z,191.87
2018-08-16T20:38:51.408Z,187.53
2018-08-16T20:41:19.894Z,203.10
2018-08-16T20:43:48.536Z,194.23
2018-08-16T20:46:17.121Z,178.87
2018-08-16T20:48:45.656Z,196.63
2018-08-16T20:51:14.168Z,194.13
2018-08-16T20:53:42.684Z,201.07
2018-08-16T20:56:11.185Z,212.63
2018-08-16T20:58:39.715Z,215.47
2018-08-16T21:01:08.314Z,220.97
2018-08-16T21:03:36.765Z,218.27
2018-08-16T21:06:06.815Z,259.70
2018-08-16T21:08:35.395Z,251.70
2018-08-16T21:11:03.968Z,286.13
2018-08-16T21:13:32.653Z,325.27
2018-08-16T21:16:01.307Z,383.40
2018-08-16T21:18:29.818Z,416.37
2018-08-16T21:20:58.366Z,409.27
2018-08-16T21:23:26.890Z,444.40
2018-08-16T21:25:55.376Z,435.50
2018-08-16T21:28:23.876Z,449.50
2018-08-16T21:30:52.360Z,451.77
2018-08-16T21:33:20.886Z,436.47
2018-08-16T21:35:49.364Z,418.33
2018-08-16T21:38:17.941Z,435.80
2018-08-16T21:40:46.403Z,448.10
2018-08-16T21:43:14.936Z,451.77
2018-08-16T21:45:43.412Z,469.87
2018-08-16T21:48:11.981Z,457.73
2018-08-16T21:50:40.505Z,473.83
2018-08-16T21:53:08.994Z,482.07
2018-08-16T21:55:37.531Z,522.50
2018-08-16T21:58:06.179Z,521.63
2018-08-16T22:00:48.495Z,520.67
2018-08-16T22:03:19.325Z,474.97
2018-08-16T22:05:55.211Z,460.97
2018-08-16T22:08:24.116Z,441.43
2018-08-16T22:10:52.668Z,449.53
2018-08-16T22:13:21.148Z,442.17
2018-08-16T22:15:49.706Z,453.87
2018-08-16T22:18:18.222Z,469.73
2018-08-16T22:20:46.782Z,462.80
2018-08-16T22:23:15.263Z,443.20
2018-08-16T22:25:43.783Z,494.10
2018-08-16T22:28:12.340Z,473.73
2018-08-16T22:30:40.882Z,462.90
2018-08-16T22:33:09.628Z,463.37
2018-08-16T22:35:38.182Z,454.63
2018-08-16T22:38:06.703Z,445.17
2018-08-16T22:40:35.285Z,452.17
2018-08-16T22:43:03.856Z,439.43
2018-08-16T22:45:32.436Z,429.97
2018-08-16T22:48:00.956Z,429.63
2018-08-16T22:50:29.521Z,436.60
2018-08-16T22:52:58.067Z,421.90
2018-08-16T22:55:26.586Z,423.83
2018-08-16T22:57:55.087Z,423.70
2018-08-16T23:00:23.660Z,410.93
2018-08-16T23:02:52.342Z,412.77
2018-08-16T23:05:20.896Z,417.20
2018-08-16T23:07:49.432Z,400.27
2018-08-16T23:10:18.000Z,406.03
2018-08-16T23:12:46.577Z,386.43
2018-08-16T23:15:15.088Z,359.73
2018-08-16T23:17:43.627Z,375.73
2018-08-16T23:20:12.148Z,373.57
2018-08-16T23:22:41.220Z,365.60
2018-08-16T23:25:09.908Z,341.33
2018-08-16T23:27:38.467Z,314.93
2018-08-16T23:30:09.860Z,291.47
2018-08-16T23:32:38.607Z,297.13
2018-08-16T23:35:07.396Z,285.40
2018-08-16T23:37:36.128Z,339.73
2018-08-16T23:40:06.071Z,356.67
2018-08-16T23:42:34.605Z,384.03
2018-08-16T23:45:03.190Z,448.23
2018-08-16T23:47:31.699Z,423.57
2018-08-16T23:50:00.263Z,442.63
2018-08-16T23:52:28.847Z,449.87
2018-08-16T23:54:57.363Z,462.30
2018-08-16T23:57:25.937Z,435.03
2018-08-16T23:59:54.486Z,441.40
